Time;durP1;ratioP1;P1;durP2;ratioP2;P2;SDS_P1;SDS_P2;PMS_P1;PMS_P2;Temp;Humidity;BMP_temperature;BMP_pressure;BME280_temperature;BME280_humidity;BME280_pressure;Samples;Min_cycle;Max_cycle;Signal;HPM_P1;HPM_P2
2021/03/23 00:00:18;;;;;;;16.15;10.45;;;4.30;99.90;;;;;;5053243;28;20294;-40
2021/03/23 00:02:48;;;;;;;16.75;11.55;;;4.30;99.90;;;;;;5053398;28;20210;-41
2021/03/23 00:05:16;;;;;;;18.63;12.52;;;4.30;99.90;;;;;;5053539;28;20242;-41
2021/03/23 00:07:43;;;;;;;14.95;11.13;;;4.40;99.90;;;;;;5053447;28;20315;-40
2021/03/23 00:10:13;;;;;;;16.90;11.43;;;4.40;99.90;;;;;;5053252;28;20658;-40
2021/03/23 00:12:40;;;;;;;17.88;12.10;;;4.40;99.90;;;;;;5053671;28;20251;-41
2021/03/23 00:15:10;;;;;;;16.67;12.38;;;4.50;99.90;;;;;;5053110;28;20645;-41
2021/03/23 00:17:37;;;;;;;15.00;10.85;;;4.60;99.90;;;;;;5053363;28;20619;-40
2021/03/23 00:20:08;;;;;;;15.38;11.60;;;4.60;99.90;;;;;;5053244;28;20215;-40
2021/03/23 00:22:36;;;;;;;14.45;11.32;;;4.70;99.90;;;;;;5053101;28;20234;-40
2021/03/23 00:25:03;;;;;;;14.85;10.50;;;4.70;99.90;;;;;;5052985;28;20671;-40
2021/03/23 00:27:32;;;;;;;16.45;11.15;;;4.70;99.90;;;;;;5052763;28;20227;-40
2021/03/23 00:29:59;;;;;;;13.68;11.18;;;4.80;99.90;;;;;;5052796;28;20262;-40
2021/03/23 00:32:26;;;;;;;12.82;11.00;;;4.80;99.90;;;;;;5053155;28;20278;-40
2021/03/23 00:34:54;;;;;;;13.30;11.60;;;4.70;99.90;;;;;;5052869;28;20204;-40
2021/03/23 00:37:21;;;;;;;16.15;11.77;;;4.70;99.90;;;;;;5052912;28;20295;-39
2021/03/23 00:39:48;;;;;;;16.83;12.63;;;4.80;99.90;;;;;;5052743;28;20762;-39
2021/03/23 00:42:15;;;;;;;18.80;11.80;;;4.70;99.90;;;;;;5052508;28;20307;-39
2021/03/23 00:44:45;;;;;;;15.88;12.10;;;4.70;99.90;;;;;;5052573;28;20670;-39
2021/03/23 00:47:12;;;;;;;15.45;11.43;;;4.70;99.90;;;;;;5052666;28;20320;-39
2021/03/23 00:49:39;;;;;;;15.95;12.88;;;4.60;99.90;;;;;;5052416;28;20208;-40
2021/03/23 00:52:07;;;;;;;18.42;12.65;;;4.60;99.90;;;;;;5052499;28;20212;-39
2021/03/23 00:54:33;;;;;;;17.10;12.75;;;4.60;99.90;;;;;;5052353;28;20705;-39
2021/03/23 00:57:00;;;;;;;15.07;12.07;;;4.60;99.90;;;;;;5052050;28;20291;-39
2021/03/23 00:59:27;;;;;;;20.65;12.52;;;4.60;99.90;;;;;;5051614;28;20741;-39
2021/03/23 01:01:55;;;;;;;19.90;12.38;;;4.50;99.90;;;;;;5052197;28;20212;-39
2021/03/23 01:04:23;;;;;;;19.77;11.90;;;4.50;99.90;;;;;;5052213;28;20212;-39
2021/03/23 01:06:50;;;;;;;16.17;11.70;;;4.50;99.90;;;;;;5052072;28;20228;-40
2021/03/23 01:09:17;;;;;;;18.08;12.48;;;4.50;99.90;;;;;;5051897;28;20295;-39
2021/03/23 01:11:44;;;;;;;15.52;12.38;;;4.40;99.90;;;;;;5052238;28;20290;-39
2021/03/23 01:14:11;;;;;;;18.23;12.60;;;4.50;99.90;;;;;;5052248;28;20257;-39
2021/03/23 01:16:38;;;;;;;15.30;12.13;;;4.50;99.90;;;;;;5052014;28;20295;-40
2021/03/23 01:19:06;;;;;;;16.95;12.02;;;4.50;99.90;;;;;;5052032;28;20239;-39
2021/03/23 01:21:33;;;;;;;16.95;12.93;;;4.50;99.90;;;;;;5051903;28;20243;-39
2021/03/23 01:24:06;;;;;;;13.63;11.50;;;4.50;99.90;;;;;;5051789;28;20246;-40
2021/03/23 01:26:33;;;;;;;16.75;12.15;;;4.50;99.90;;;;;;5051932;28;20274;-39
2021/03/23 01:29:00;;;;;;;17.30;12.05;;;4.40;99.90;;;;;;5051951;28;20325;-38
2021/03/23 01:31:27;;;;;;;23.00;12.50;;;4.40;99.90;;;;;;5059586;28;20242;-39
2021/03/23 01:33:55;;;;;;;17.15;11.80;;;4.40;99.90;;;;;;5071561;28;20211;-39
2021/03/23 01:36:23;;;;;;;18.08;12.57;;;4.40;99.90;;;;;;5071597;28;20298;-39
2021/03/23 01:38:50;;;;;;;19.63;11.90;;;4.40;99.90;;;;;;5071385;28;20276;-39
2021/03/23 01:41:17;;;;;;;17.52;12.70;;;4.40;99.90;;;;;;5071311;28;20255;-39
2021/03/23 01:43:44;;;;;;;16.23;11.95;;;4.30;99.90;;;;;;5071556;28;20230;-39
2021/03/23 01:46:42;;;;;;;17.15;13.38;;;4.30;99.90;;;;;;5071308;28;20250;-39
2021/03/23 01:49:17;;;;;;;18.42;13.07;;;4.20;99.90;;;;;;4990010;28;20619;-39
2021/03/23 01:51:48;;;;;;;20.58;14.25;;;4.20;99.90;;;;;;5057801;28;20230;-39
2021/03/23 01:54:19;;;;;;;16.13;12.50;;;4.10;99.90;;;;;;5071722;28;20284;-39
2021/03/23 01:56:46;;;;;;;18.08;12.73;;;4.10;99.90;;;;;;5071838;28;20294;-39
2021/03/23 01:59:14;;;;;;;18.45;12.63;;;4.00;99.90;;;;;;5071371;28;20640;-39
2021/03/23 02:01:41;;;;;;;19.70;14.50;;;4.00;99.90;;;;;;5071330;28;20574;-39
2021/03/23 02:04:08;;;;;;;21.92;14.43;;;3.90;99.90;;;;;;5071782;28;20215;-39
2021/03/23 02:06:41;;;;;;;18.08;13.55;;;3.90;99.90;;;;;;5071355;28;20259;-40
2021/03/23 02:09:14;;;;;;;19.10;13.05;;;3.80;99.90;;;;;;5071547;28;20290;-39
2021/03/23 02:11:46;;;;;;;21.60;14.20;;;3.80;99.90;;;;;;5071320;28;20263;-44
2021/03/23 02:14:15;;;;;;;19.15;13.63;;;3.80;99.90;;;;;;5071065;28;20290;-39
2021/03/23 02:16:42;;;;;;;20.13;14.52;;;3.80;99.90;;;;;;5071470;28;20374;-39
2021/03/23 02:19:10;;;;;;;20.25;14.27;;;3.80;99.90;;;;;;5071363;28;20215;-38
2021/03/23 02:21:38;;;;;;;18.65;13.35;;;3.80;99.90;;;;;;5071086;28;20243;-38
2021/03/23 02:24:06;;;;;;;25.05;14.20;;;3.70;99.90;;;;;;5071038;28;20223;-39
2021/03/23 02:26:35;;;;;;;21.63;14.43;;;3.70;99.90;;;;;;5070941;28;20319;-39
2021/03/23 02:29:07;;;;;;;21.77;15.55;;;3.70;99.90;;;;;;5071498;28;20768;-39
2021/03/23 02:31:37;;;;;;;20.48;15.60;;;3.70;99.90;;;;;;5071148;28;20245;-39
2021/03/23 02:34:06;;;;;;;24.15;16.00;;;3.70;99.90;;;;;;5071041;28;20251;-39
2021/03/23 02:36:33;;;;;;;20.38;14.27;;;3.80;99.90;;;;;;5071134;28;20207;-39
2021/03/23 02:39:01;;;;;;;21.15;14.20;;;3.80;99.90;;;;;;5071125;28;20685;-39
2021/03/23 02:41:29;;;;;;;21.80;14.80;;;3.80;99.90;;;;;;5071231;28;20572;-39
2021/03/23 02:43:56;;;;;;;20.23;14.23;;;3.80;99.90;;;;;;5070983;28;20210;-39
2021/03/23 02:46:24;;;;;;;25.60;15.50;;;3.80;99.90;;;;;;5070701;28;20267;-39
2021/03/23 02:48:51;;;;;;;22.48;14.98;;;3.80;99.90;;;;;;5070909;28;20551;-39
2021/03/23 02:51:19;;;;;;;22.30;14.88;;;3.80;99.90;;;;;;5070958;28;20274;-40
2021/03/23 02:53:47;;;;;;;21.90;14.90;;;3.80;99.90;;;;;;5071212;28;20382;-39
2021/03/23 02:56:16;;;;;;;22.15;15.07;;;3.80;99.90;;;;;;5071209;28;20250;-39
2021/03/23 02:58:43;;;;;;;22.48;15.65;;;3.80;99.90;;;;;;5071256;28;20239;-39
2021/03/23 03:01:11;;;;;;;22.27;14.88;;;3.70;99.90;;;;;;5071222;28;20211;-39
2021/03/23 03:03:39;;;;;;;23.20;15.25;;;3.70;99.90;;;;;;5071018;28;20212;-41
2021/03/23 03:06:07;;;;;;;21.98;14.80;;;3.60;99.90;;;;;;5071029;28;20245;-39
2021/03/23 03:08:34;;;;;;;24.65;14.57;;;3.60;99.90;;;;;;5070875;28;20734;-39
2021/03/23 03:11:03;;;;;;;22.08;14.65;;;3.60;99.90;;;;;;5071002;28;20322;-39
2021/03/23 03:13:34;;;;;;;18.70;13.90;;;3.50;99.90;;;;;;5070971;28;20704;-39
2021/03/23 03:16:01;;;;;;;21.60;15.07;;;3.40;99.90;;;;;;5070861;28;20211;-39
2021/03/23 03:18:29;;;;;;;19.02;14.75;;;3.40;99.90;;;;;;5070789;28;20287;-39
2021/03/23 03:20:57;;;;;;;22.00;15.13;;;3.30;99.90;;;;;;5071274;28;20207;-38
2021/03/23 03:23:25;;;;;;;22.15;14.63;;;3.30;99.90;;;;;;5074250;28;20756;-37
2021/03/23 03:25:52;;;;;;;19.15;13.73;;;3.30;99.90;;;;;;5074338;28;20210;-38
2021/03/23 03:28:20;;;;;;;25.08;15.77;;;3.20;99.90;;;;;;5074404;28;20657;-39
2021/03/23 03:30:48;;;;;;;22.98;14.10;;;3.20;99.90;;;;;;5074345;28;20207;-39
2021/03/23 03:33:19;;;;;;;18.83;14.13;;;3.20;99.90;;;;;;5074187;28;20352;-39
2021/03/23 03:35:47;;;;;;;22.90;16.13;;;3.20;99.90;;;;;;5074264;28;20242;-39
2021/03/23 03:38:15;;;;;;;21.85;15.10;;;3.20;99.90;;;;;;5074368;28;20203;-38
2021/03/23 03:40:45;;;;;;;19.85;14.88;;;3.20;99.90;;;;;;5074097;28;20203;-38
2021/03/23 03:43:14;;;;;;;24.23;16.13;;;3.20;99.90;;;;;;5074252;28;20211;-39
2021/03/23 03:45:41;;;;;;;21.25;14.98;;;3.20;99.90;;;;;;5075014;28;20662;-38
2021/03/23 03:48:10;;;;;;;23.63;15.10;;;3.20;99.90;;;;;;5074686;28;20231;-38
2021/03/23 03:50:36;;;;;;;25.20;14.80;;;3.30;99.90;;;;;;5073865;28;20729;-38
2021/03/23 03:53:06;;;;;;;23.42;15.25;;;3.40;99.90;;;;;;5073974;28;20246;-39
2021/03/23 03:55:35;;;;;;;22.65;15.27;;;3.50;99.90;;;;;;5073897;28;20218;-39
2021/03/23 03:58:02;;;;;;;24.38;15.90;;;3.50;99.90;;;;;;5074059;28;20227;-39
2021/03/23 04:00:31;;;;;;;21.77;15.40;;;3.50;99.90;;;;;;5073883;28;20238;-39
2021/03/23 04:02:59;;;;;;;21.73;15.43;;;3.50;99.90;;;;;;5073912;28;20209;-39
2021/03/23 04:05:29;;;;;;;18.60;14.75;;;3.60;99.90;;;;;;5073849;28;20211;-39
2021/03/23 04:07:56;;;;;;;20.27;14.13;;;3.60;99.90;;;;;;5073762;28;20252;-39
2021/03/23 04:10:24;;;;;;;19.83;13.95;;;3.60;99.90;;;;;;5073643;28;20300;-39
2021/03/23 04:12:52;;;;;;;24.17;15.52;;;3.60;99.90;;;;;;5073421;28;20301;-40
2021/03/23 04:15:21;;;;;;;22.13;14.95;;;3.60;99.90;;;;;;5073407;28;20264;-39
2021/03/23 04:17:48;;;;;;;21.25;14.90;;;3.60;99.90;;;;;;5073502;28;20246;-39
2021/03/23 04:20:17;;;;;;;24.08;16.60;;;3.60;99.90;;;;;;5073524;28;20203;-39
2021/03/23 04:22:45;;;;;;;29.25;18.10;;;3.70;99.90;;;;;;5073260;28;20206;-40
2021/03/23 04:25:15;;;;;;;24.67;19.92;;;3.70;99.90;;;;;;5073277;28;20262;-38
2021/03/23 04:27:42;;;;;;;30.10;20.98;;;3.70;99.90;;;;;;5073471;28;20262;-39
2021/03/23 04:30:10;;;;;;;32.58;22.20;;;3.70;99.90;;;;;;5073340;28;20545;-39
2021/03/23 04:32:38;;;;;;;40.40;21.48;;;3.60;99.90;;;;;;5073137;28;20294;-39
2021/03/23 04:35:08;;;;;;;41.95;22.35;;;3.70;99.90;;;;;;5073221;28;20294;-38
2021/03/23 04:37:35;;;;;;;38.05;24.85;;;3.70;99.90;;;;;;5072692;28;20677;-39
2021/03/23 04:40:04;;;;;;;49.10;30.25;;;3.70;99.90;;;;;;5072939;28;20243;-39
2021/03/23 04:42:31;;;;;;;40.60;26.73;;;3.60;99.90;;;;;;5072820;28;20294;-39
2021/03/23 04:44:58;;;;;;;32.28;22.33;;;3.60;99.90;;;;;;5072857;28;20239;-39
2021/03/23 04:47:25;;;;;;;42.40;27.77;;;3.60;99.90;;;;;;5072750;28;20223;-39
2021/03/23 04:49:52;;;;;;;35.00;21.60;;;3.70;99.90;;;;;;5072297;28;20245;-39
2021/03/23 04:52:19;;;;;;;39.35;28.65;;;3.70;99.90;;;;;;5072677;28;20582;-39
2021/03/23 04:54:46;;;;;;;32.35;23.90;;;3.70;99.90;;;;;;5072982;28;20572;-39
2021/03/23 04:57:14;;;;;;;37.97;25.58;;;3.70;99.90;;;;;;5072429;28;20715;-38
2021/03/23 04:59:41;;;;;;;40.42;23.42;;;3.70;99.90;;;;;;5072643;28;20286;-39
2021/03/23 05:02:08;;;;;;;29.60;22.90;;;3.70;99.90;;;;;;5072164;28;20235;-39
2021/03/23 05:04:35;;;;;;;102.20;74.60;;;3.70;99.90;;;;;;5072135;28;20290;-41
2021/03/23 05:07:09;;;;;;;29.20;19.92;;;3.70;99.90;;;;;;5072206;28;20322;-40
2021/03/23 05:09:36;;;;;;;24.33;18.05;;;3.70;99.90;;;;;;5072359;28;20294;-41
2021/03/23 05:12:03;;;;;;;51.42;34.58;;;3.60;99.90;;;;;;5072117;28;20713;-41
2021/03/23 05:14:31;;;;;;;25.13;18.27;;;3.60;99.90;;;;;;5072223;28;20639;-40
2021/03/23 05:16:58;;;;;;;34.28;23.58;;;3.60;99.90;;;;;;5072078;28;20216;-41
2021/03/23 05:19:25;;;;;;;28.02;18.80;;;3.60;99.90;;;;;;5072029;28;20215;-39
2021/03/23 05:21:51;;;;;;;23.63;17.08;;;3.60;99.90;;;;;;5071821;28;20298;-39
2021/03/23 05:24:18;;;;;;;26.90;16.92;;;3.60;99.90;;;;;;5071945;28;20329;-39
2021/03/23 05:26:45;;;;;;;24.75;18.35;;;3.60;99.90;;;;;;5071456;28;20651;-41
2021/03/23 05:29:12;;;;;;;32.72;21.10;;;3.60;99.90;;;;;;5071660;28;20213;-40
2021/03/23 05:31:40;;;;;;;29.75;21.33;;;3.70;99.90;;;;;;5071480;28;20207;-41
2021/03/23 05:34:07;;;;;;;26.30;18.45;;;3.70;99.90;;;;;;5071697;28;20214;-41
2021/03/23 05:36:34;;;;;;;25.10;17.50;;;3.80;99.90;;;;;;5071646;28;20301;-41
2021/03/23 05:39:01;;;;;;;25.95;17.00;;;3.90;99.90;;;;;;5071831;28;20216;-41
2021/03/23 05:41:41;;;;;;;27.38;18.98;;;4.10;99.90;;;;;;5072026;28;20625;-41
2021/03/23 05:44:23;;;;;;;23.58;17.00;;;4.20;99.90;;;;;;5071233;28;20242;-41
2021/03/23 05:46:51;;;;;;;28.80;20.40;;;4.30;99.90;;;;;;5071517;28;20630;-42
2021/03/23 05:49:30;;;;;;;23.95;17.60;;;4.40;99.90;;;;;;5071898;28;20218;-40
2021/03/23 05:52:02;;;;;;;24.23;18.10;;;4.40;99.90;;;;;;5071755;28;20283;-40
2021/03/23 05:54:36;;;;;;;23.88;16.50;;;4.50;99.90;;;;;;5071688;28;20212;-41
2021/03/23 05:57:12;;;;;;;34.08;23.60;;;4.60;99.90;;;;;;5071514;28;20641;-49
2021/03/23 05:59:46;;;;;;;27.98;19.25;;;4.70;99.90;;;;;;5071560;28;20218;-45
2021/03/23 06:02:25;;;;;;;23.70;18.55;;;4.80;99.90;;;;;;5071737;28;20242;-44
2021/03/23 06:05:01;;;;;;;22.45;16.83;;;4.90;99.90;;;;;;5071611;28;20211;-44
2021/03/23 06:07:35;;;;;;;28.88;19.23;;;4.90;99.90;;;;;;5071462;28;20250;-44
2021/03/23 06:10:12;;;;;;;27.50;18.63;;;4.90;99.90;;;;;;5071437;28;20574;-45
2021/03/23 06:12:45;;;;;;;28.85;17.73;;;5.00;99.90;;;;;;5071829;28;20749;-43
2021/03/23 06:15:20;;;;;;;28.83;21.85;;;5.10;99.90;;;;;;5071530;28;20245;-44
2021/03/23 06:17:55;;;;;;;25.63;17.92;;;5.10;99.90;;;;;;5071305;28;20294;-43
2021/03/23 06:20:39;;;;;;;28.50;19.65;;;5.10;99.90;;;;;;5071101;28;20598;-45
2021/03/23 06:23:46;;;;;;;26.25;19.30;;;5.10;99.90;;;;;;5071396;28;20221;-44
2021/03/23 06:26:21;;;;;;;27.63;18.33;;;5.20;99.90;;;;;;5048279;28;20303;-44
2021/03/23 06:29:03;;;;;;;27.80;17.33;;;5.30;99.90;;;;;;5071528;28;20223;-44
2021/03/23 06:31:59;;;;;;;26.40;18.13;;;5.40;99.90;;;;;;5071398;28;20285;-46
2021/03/23 06:34:30;;;;;;;26.33;18.20;;;5.40;99.90;;;;;;5062682;28;20207;-43
2021/03/23 06:36:58;;;;;;;29.00;19.67;;;5.50;99.90;;;;;;5071125;28;20306;-44
2021/03/23 06:39:28;;;;;;;29.83;19.33;;;5.50;99.90;;;;;;5071072;28;20207;-45
2021/03/23 06:41:58;;;;;;;27.10;18.60;;;5.50;99.90;;;;;;5071278;28;20427;-43
2021/03/23 06:44:32;;;;;;;28.67;19.40;;;5.60;99.90;;;;;;5071175;28;20680;-44
2021/03/23 06:46:59;;;;;;;28.42;18.35;;;5.70;99.90;;;;;;5070983;28;20306;-43
2021/03/23 06:49:39;;;;;;;27.63;18.48;;;5.70;99.90;;;;;;5070905;28;20780;-51
2021/03/23 06:52:19;;;;;;;26.50;18.48;;;5.90;99.90;;;;;;5051128;28;20212;-43
2021/03/23 06:55:06;;;;;;;29.50;19.38;;;6.00;99.90;;;;;;5051484;28;20215;-43
2021/03/23 06:57:38;;;;;;;26.55;17.95;;;6.00;99.90;;;;;;5054227;28;20189;-42
2021/03/23 07:00:19;;;;;;;25.20;17.60;;;6.00;99.90;;;;;;5054828;28;20208;-42
2021/03/23 07:02:47;;;;;;;30.83;19.10;;;6.00;99.90;;;;;;5054984;28;20301;-43
2021/03/23 07:05:34;;;;;;;23.83;18.42;;;6.00;99.90;;;;;;5054861;28;20216;-43
2021/03/23 07:08:15;;;;;;;27.17;19.42;;;5.90;99.90;;;;;;5054696;28;20240;-43
2021/03/23 07:10:44;;;;;;;27.52;17.95;;;5.90;99.90;;;;;;5054980;28;20214;-42
2021/03/23 07:13:30;;;;;;;28.58;19.95;;;5.90;99.90;;;;;;5054533;28;20670;-43
2021/03/23 07:16:02;;;;;;;28.20;18.83;;;5.90;99.90;;;;;;5054557;28;20216;-45
2021/03/23 07:18:31;;;;;;;24.15;19.33;;;6.00;99.90;;;;;;5054667;28;20300;-43
2021/03/23 07:21:03;;;;;;;25.98;20.35;;;6.10;99.90;;;;;;5054759;28;20265;-44
2021/03/23 07:23:37;;;;;;;28.48;18.52;;;6.10;99.90;;;;;;5054346;28;20260;-44
2021/03/23 07:26:18;;;;;;;26.52;18.10;;;6.20;99.90;;;;;;5054963;28;20281;-44
2021/03/23 07:28:46;;;;;;;26.70;18.83;;;6.30;99.90;;;;;;5054142;28;20258;-43
2021/03/23 07:31:18;;;;;;;29.20;19.08;;;6.40;99.90;;;;;;5054071;28;20211;-43
2021/03/23 07:33:54;;;;;;;29.30;18.52;;;6.50;99.90;;;;;;5054413;28;20258;-45
2021/03/23 07:36:26;;;;;;;26.83;18.88;;;6.50;99.90;;;;;;5054220;28;20697;-44
2021/03/23 07:39:00;;;;;;;29.35;19.67;;;6.60;99.90;;;;;;5054173;28;20204;-44
2021/03/23 07:41:33;;;;;;;25.98;18.58;;;6.70;99.90;;;;;;5054157;28;20329;-44
2021/03/23 07:44:07;;;;;;;24.88;19.27;;;6.80;99.90;;;;;;5054014;28;20667;-44
2021/03/23 07:46:39;;;;;;;29.92;19.35;;;6.80;99.90;;;;;;5054388;28;20308;-43
2021/03/23 07:49:20;;;;;;;27.83;18.15;;;6.90;99.90;;;;;;5053898;28;20234;-43
2021/03/23 07:51:54;;;;;;;30.23;19.88;;;6.90;99.90;;;;;;5071984;28;20242;-44
2021/03/23 07:54:28;;;;;;;29.63;19.65;;;6.90;99.90;;;;;;5074079;28;20234;-43
2021/03/23 07:57:25;;;;;;;29.05;21.17;;;6.90;99.90;;;;;;5073801;28;20289;-43
2021/03/23 08:00:25;;;;;;;27.10;20.83;;;7.00;99.90;;;;;;5057142;28;20579;-43
2021/03/23 08:03:09;;;;;;;30.00;19.73;;;7.00;99.90;;;;;;5073794;28;20233;-42
2021/03/23 08:05:41;;;;;;;26.52;19.25;;;7.10;99.90;;;;;;5073811;28;20212;-42
2021/03/23 08:08:28;;;;;;;25.58;18.50;;;7.20;99.90;;;;;;5073166;28;20317;-47
2021/03/23 08:11:05;;;;;;;26.55;19.05;;;7.30;99.90;;;;;;5073504;28;20301;-46
2021/03/23 08:13:49;;;;;;;29.70;19.25;;;7.30;99.90;;;;;;5073760;28;20207;-44
2021/03/23 08:16:30;;;;;;;30.38;20.23;;;7.40;99.90;;;;;;5073603;28;20211;-42
2021/03/23 08:19:34;;;;;;;36.10;20.17;;;7.30;99.90;;;;;;5073418;28;20298;-43
2021/03/23 08:22:38;;;;;;;27.65;19.92;;;7.20;99.90;;;;;;5073241;28;20723;-42
2021/03/23 08:25:14;;;;;;;33.05;23.08;;;7.10;99.90;;;;;;5073478;28;20213;-44
2021/03/23 08:28:10;;;;;;;29.13;19.90;;;7.10;99.90;;;;;;5073165;28;20565;-43
2021/03/23 08:30:48;;;;;;;27.25;19.85;;;7.10;99.90;;;;;;5072976;28;20242;-42
2021/03/23 08:33:34;;;;;;;35.50;22.02;;;7.00;99.90;;;;;;5073014;28;20210;-42
2021/03/23 08:36:14;;;;;;;27.60;18.92;;;6.90;99.90;;;;;;5073306;28;20298;-42
2021/03/23 08:39:01;;;;;;;28.23;19.45;;;6.90;99.90;;;;;;5073121;28;20265;-42
2021/03/23 08:41:39;;;;;;;30.58;19.70;;;6.90;99.90;;;;;;5073017;28;20238;-42
2021/03/23 08:44:20;;;;;;;33.00;19.35;;;7.00;99.90;;;;;;5073154;28;20222;-42
2021/03/23 08:46:48;;;;;;;26.13;19.83;;;6.90;99.90;;;;;;5073357;28;20302;-46
2021/03/23 08:49:19;;;;;;;31.13;21.90;;;6.80;99.90;;;;;;5076764;28;20713;-42
2021/03/23 08:51:48;;;;;;;29.33;20.27;;;6.70;99.90;;;;;;5072327;28;20263;-43
2021/03/23 08:54:44;;;;;;;31.30;20.42;;;6.60;99.90;;;;;;5072454;28;20677;-43
2021/03/23 08:57:12;;;;;;;28.98;20.17;;;6.60;99.90;;;;;;5072541;28;20215;-49
2021/03/23 08:59:57;;;;;;;25.70;18.83;;;6.60;99.90;;;;;;5072260;28;20290;-46
2021/03/23 09:02:45;;;;;;;29.35;19.67;;;6.60;99.90;;;;;;5072224;28;20253;-47
2021/03/23 09:05:49;;;;;;;28.35;19.75;;;6.70;99.90;;;;;;5072284;28;20218;-46
2021/03/23 09:08:39;;;;;;;31.13;18.77;;;6.80;99.90;;;;;;5056538;28;20314;-45
2021/03/23 09:11:15;;;;;;;25.10;19.10;;;6.90;99.90;;;;;;5072589;28;20290;-43
2021/03/23 09:14:24;;;;;;;31.77;19.17;;;7.10;99.90;;;;;;5072316;28;20237;-44
2021/03/23 09:17:15;;;;;;;28.70;18.05;;;7.20;99.90;;;;;;5072062;28;20204;-46
2021/03/23 09:19:52;;;;;;;28.55;19.48;;;7.30;99.90;;;;;;5071251;28;20207;-44
2021/03/23 09:22:36;;;;;;;32.78;20.02;;;7.40;99.90;;;;;;5072143;28;20642;-43
2021/03/23 09:25:48;;;;;;;32.28;19.50;;;7.50;99.90;;;;;;5071824;28;20229;-45
2021/03/23 09:28:52;;;;;;;31.30;19.83;;;7.60;99.90;;;;;;5071826;28;20314;-46
2021/03/23 09:32:00;;;;;;;29.90;19.17;;;7.70;99.90;;;;;;4990398;28;20249;-45
2021/03/23 09:35:07;;;;;;;27.73;19.85;;;7.70;99.90;;;;;;4991040;28;20218;-46
2021/03/23 09:37:37;;;;;;;30.10;20.05;;;7.70;99.90;;;;;;5071423;28;20299;-42
2021/03/23 09:40:30;;;;;;;37.63;25.92;;;7.60;99.90;;;;;;5071772;28;20298;-42
2021/03/23 09:43:25;;;;;;;31.35;20.58;;;7.70;99.90;;;;;;5071575;28;20299;-44
2021/03/23 09:46:00;;;;;;;27.23;19.15;;;7.80;99.90;;;;;;5054044;28;20302;-44
2021/03/23 09:48:48;;;;;;;32.10;19.67;;;7.90;99.90;;;;;;5071200;28;20269;-45
2021/03/23 09:51:45;;;;;;;32.65;23.95;;;8.00;99.90;;;;;;5071238;28;20281;-45
2021/03/23 09:54:18;;;;;;;32.92;21.30;;;8.00;99.90;;;;;;5071495;28;20207;-43
2021/03/23 09:56:48;;;;;;;29.67;21.13;;;8.00;99.90;;;;;;5071434;28;21436;-45
2021/03/23 09:59:19;;;;;;;30.83;21.23;;;8.20;99.90;;;;;;5071298;28;20636;-45
2021/03/23 10:01:59;;;;;;;33.15;19.60;;;8.20;99.90;;;;;;5071658;28;20283;-48
2021/03/23 10:04:35;;;;;;;87.22;47.95;;;8.30;99.90;;;;;;5071580;28;20207;-44
2021/03/23 10:07:04;;;;;;;48.17;31.30;;;8.30;99.90;;;;;;5071731;28;20280;-44
2021/03/23 10:09:33;;;;;;;26.67;22.88;;;8.20;99.90;;;;;;5071158;28;20231;-45
2021/03/23 10:12:00;;;;;;;27.67;19.75;;;8.20;99.90;;;;;;5071204;28;20215;-44
2021/03/23 10:14:41;;;;;;;26.83;20.08;;;8.20;99.90;;;;;;5071375;28;20207;-44
2021/03/23 10:17:14;;;;;;;30.88;19.83;;;8.20;99.90;;;;;;5071153;28;20682;-43
2021/03/23 10:19:48;;;;;;;27.33;18.02;;;8.30;99.90;;;;;;5071159;28;20218;-43
2021/03/23 10:22:17;;;;;;;25.73;17.92;;;8.30;99.80;;;;;;5071299;28;20583;-43
2021/03/23 10:24:47;;;;;;;29.98;22.80;;;8.40;99.80;;;;;;5070937;28;20626;-46
2021/03/23 10:27:19;;;;;;;23.65;18.00;;;8.40;99.70;;;;;;5070911;28;20242;-45
2021/03/23 10:30:07;;;;;;;25.27;18.25;;;8.40;99.70;;;;;;5070765;28;20231;-45
2021/03/23 10:32:39;;;;;;;24.40;16.65;;;8.60;99.40;;;;;;5075155;28;20235;-44
2021/03/23 10:35:17;;;;;;;22.67;17.30;;;8.70;99.10;;;;;;5074803;28;20265;-43
2021/03/23 10:37:45;;;;;;;22.20;16.17;;;8.90;98.90;;;;;;5074983;28;20246;-42
2021/03/23 10:40:37;;;;;;;20.33;15.98;;;8.90;98.70;;;;;;5074849;28;20575;-42
2021/03/23 10:43:04;;;;;;;21.50;15.43;;;8.90;98.40;;;;;;5056088;28;20554;-42
2021/03/23 10:45:37;;;;;;;21.13;16.45;;;8.90;98.50;;;;;;5074743;28;20753;-42
2021/03/23 10:48:12;;;;;;;21.77;16.13;;;8.90;98.40;;;;;;5074703;28;20231;-42
2021/03/23 10:50:42;;;;;;;22.90;15.07;;;8.90;98.40;;;;;;5074582;28;20242;-43
2021/03/23 10:53:20;;;;;;;21.00;16.48;;;8.90;98.20;;;;;;5074848;28;20276;-42
2021/03/23 10:55:49;;;;;;;23.55;16.65;;;8.90;98.20;;;;;;5074734;28;20247;-42
2021/03/23 10:58:19;;;;;;;27.63;20.35;;;8.70;98.40;;;;;;5074677;28;20203;-42
2021/03/23 11:00:48;;;;;;;38.88;32.22;;;8.60;98.50;;;;;;5074462;28;20765;-41
2021/03/23 11:03:30;;;;;;;23.15;16.92;;;8.60;98.40;;;;;;5074337;28;20660;-41
2021/03/23 11:06:00;;;;;;;23.65;17.55;;;8.60;98.30;;;;;;5074595;28;20214;-42
2021/03/23 11:08:27;;;;;;;21.67;16.73;;;8.50;98.30;;;;;;5074340;28;20223;-41
2021/03/23 11:10:56;;;;;;;24.23;16.80;;;8.50;98.30;;;;;;5074354;28;20261;-41
2021/03/23 11:13:24;;;;;;;23.35;15.68;;;8.50;98.30;;;;;;5074398;28;20239;-41
2021/03/23 11:15:54;;;;;;;20.15;14.95;;;8.50;98.30;;;;;;5074288;28;20746;-41
2021/03/23 11:18:28;;;;;;;24.00;15.60;;;8.30;98.30;;;;;;5074357;28;20239;-41
2021/03/23 11:20:58;;;;;;;22.42;16.73;;;8.20;98.50;;;;;;5074416;28;20207;-42
2021/03/23 11:23:38;;;;;;;23.45;17.40;;;8.10;98.70;;;;;;5074283;28;20231;-42
2021/03/23 11:26:07;;;;;;;25.42;17.88;;;8.00;98.80;;;;;;5074208;28;20250;-44
2021/03/23 11:28:34;;;;;;;22.42;14.65;;;7.90;99.20;;;;;;5074736;28;20322;-44
2021/03/23 11:31:03;;;;;;;18.65;15.13;;;7.80;99.40;;;;;;5074550;28;20212;-47
2021/03/23 11:33:31;;;;;;;26.10;16.58;;;7.80;99.50;;;;;;5074603;28;20207;-49
2021/03/23 11:36:00;;;;;;;22.30;15.85;;;7.90;99.70;;;;;;5074239;28;20207;-45
2021/03/23 11:38:27;;;;;;;20.98;16.38;;;7.90;99.60;;;;;;5074137;28;20223;-41
2021/03/23 11:40:56;;;;;;;20.65;15.82;;;7.90;99.60;;;;;;5073983;28;20207;-44
2021/03/23 11:43:29;;;;;;;21.20;14.95;;;8.00;99.60;;;;;;5073223;28;20293;-45
2021/03/23 11:46:01;;;;;;;17.80;13.90;;;8.10;99.50;;;;;;5073942;28;20230;-46
2021/03/23 11:48:33;;;;;;;26.38;16.30;;;8.10;99.40;;;;;;5073676;28;20227;-44
2021/03/23 11:51:02;;;;;;;25.08;16.77;;;8.20;99.30;;;;;;5073443;28;20239;-47
2021/03/23 11:53:29;;;;;;;19.85;15.73;;;8.20;99.20;;;;;;5074023;28;20212;-48
2021/03/23 11:55:57;;;;;;;20.33;15.85;;;8.30;99.10;;;;;;5076241;28;20375;-45
2021/03/23 11:58:26;;;;;;;20.00;13.50;;;8.40;98.90;;;;;;5073783;28;20243;-44
2021/03/23 12:00:53;;;;;;;24.38;18.95;;;8.40;99.00;;;;;;5073154;28;20298;-47
2021/03/23 12:03:21;;;;;;;42.03;35.45;;;8.30;98.70;;;;;;5073144;28;20233;-47
2021/03/23 12:05:48;;;;;;;22.40;15.75;;;8.20;98.80;;;;;;5073247;28;20305;-48
2021/03/23 12:08:32;;;;;;;19.45;15.65;;;8.20;98.90;;;;;;5073286;28;20657;-47
2021/03/23 12:11:12;;;;;;;20.58;14.43;;;8.20;99.00;;;;;;5071693;28;20215;-46
2021/03/23 12:14:03;;;;;;;21.00;16.80;;;8.20;99.20;;;;;;5072980;28;20219;-49
2021/03/23 12:16:36;;;;;;;18.40;13.32;;;8.20;98.90;;;;;;5073331;28;20713;-46
2021/03/23 12:19:20;;;;;;;20.27;13.57;;;8.10;99.00;;;;;;5073236;28;20214;-45
2021/03/23 12:21:49;;;;;;;19.42;13.85;;;8.20;98.90;;;;;;5073247;28;20352;-43
2021/03/23 12:24:18;;;;;;;21.20;14.38;;;8.30;98.80;;;;;;5072994;28;20254;-41
2021/03/23 12:26:45;;;;;;;22.33;16.00;;;8.40;98.60;;;;;;5073034;28;20737;-42
2021/03/23 12:29:12;;;;;;;16.85;12.50;;;8.50;98.50;;;;;;5072877;28;20316;-45
2021/03/23 12:31:39;;;;;;;20.45;14.20;;;8.50;98.40;;;;;;5072851;28;20208;-46
2021/03/23 12:34:06;;;;;;;16.45;13.95;;;8.70;98.30;;;;;;5073059;28;20207;-48
2021/03/23 12:36:33;;;;;;;19.55;14.88;;;8.80;97.90;;;;;;5072862;28;20211;-48
2021/03/23 12:39:02;;;;;;;17.80;14.07;;;9.00;97.60;;;;;;5072777;28;20209;-47
2021/03/23 12:41:32;;;;;;;21.15;13.85;;;8.90;97.60;;;;;;5072978;28;20293;-48
2021/03/23 12:44:00;;;;;;;21.55;14.20;;;8.80;98.00;;;;;;5072965;28;20690;-44
2021/03/23 12:46:28;;;;;;;18.17;14.63;;;8.70;97.70;;;;;;5073201;28;20204;-43
2021/03/23 12:48:56;;;;;;;21.23;14.90;;;8.70;97.70;;;;;;5072299;28;20227;-43
2021/03/23 12:51:29;;;;;;;16.63;13.98;;;8.80;97.60;;;;;;5072586;28;20270;-42
2021/03/23 12:53:58;;;;;;;21.30;14.25;;;8.90;97.50;;;;;;5072753;28;20302;-43
2021/03/23 12:56:25;;;;;;;17.45;14.32;;;9.00;97.30;;;;;;5072799;28;20320;-43
2021/03/23 12:58:53;;;;;;;16.42;13.25;;;9.10;97.20;;;;;;5072646;28;20298;-42
2021/03/23 13:01:20;;;;;;;16.88;12.75;;;9.10;97.00;;;;;;5072668;28;20272;-49
2021/03/23 13:03:48;;;;;;;15.50;11.68;;;9.10;96.90;;;;;;5072509;28;20211;-43